sensor_id;sensor_type;location;lat;lon;timestamp;P1;durP1;ratioP1;P2;durP2;ratioP2
3415;SDS011;1721;51.238;9.562;2024-02-28T00:00:09;12.63;;;4.93;;
3415;SDS011;1721;51.238;9.562;2024-02-28T00:02:37;9.07;;;4.20;;
3415;SDS011;1721;51.238;9.562;2024-02-28T00:05:02;9.00;;;4.63;;
3415;SDS011;1721;51.238;9.562;2024-02-28T00:07:28;13.67;;;4.60;;
3415;SDS011;1721;51.238;9.562;2024-02-28T00:09:55;14.50;;;4.43;;
3415;SDS011;1721;51.238;9.562;2024-02-28T00:12:23;11.57;;;5.75;;
3415;SDS011;1721;51.238;9.562;2024-02-28T00:14:52;18.92;;;5.47;;
3415;SDS011;1721;51.238;9.562;2024-02-28T00:17:18;11.57;;;4.55;;
3415;SDS011;1721;51.238;9.562;2024-02-28T00:19:43;16.23;;;4.50;;
3415;SDS011;1721;51.238;9.562;2024-02-28T00:22:09;11.80;;;4.10;;
3415;SDS011;1721;51.238;9.562;2024-02-28T00:24:35;19.33;;;5.83;;
3415;SDS011;1721;51.238;9.562;2024-02-28T00:27:00;12.40;;;5.07;;
3415;SDS011;1721;51.238;9.562;2024-02-28T00:29:26;17.60;;;6.30;;
3415;SDS011;1721;51.238;9.562;2024-02-28T00:31:52;13.60;;;5.77;;
3415;SDS011;1721;51.238;9.562;2024-02-28T00:34:17;8.10;;;4.67;;
3415;SDS011;1721;51.238;9.562;2024-02-28T00:36:45;12.87;;;4.40;;
3415;SDS011;1721;51.238;9.562;2024-02-28T00:39:10;9.63;;;4.90;;
3415;SDS011;1721;51.238;9.562;2024-02-28T00:41:37;12.10;;;5.60;;
3415;SDS011;1721;51.238;9.562;2024-02-28T00:44:02;17.10;;;4.47;;
3415;SDS011;1721;51.238;9.562;2024-02-28T00:46:28;13.05;;;5.25;;
3415;SDS011;1721;51.238;9.562;2024-02-28T00:48:54;11.37;;;5.37;;
3415;SDS011;1721;51.238;9.562;2024-02-28T00:51:19;7.53;;;3.40;;
3415;SDS011;1721;51.238;9.562;2024-02-28T00:53:45;12.47;;;5.30;;
3415;SDS011;1721;51.238;9.562;2024-02-28T00:56:10;16.07;;;5.03;;
3415;SDS011;1721;51.238;9.562;2024-02-28T00:58:36;14.40;;;6.27;;
3415;SDS011;1721;51.238;9.562;2024-02-28T01:01:03;12.40;;;4.72;;
3415;SDS011;1721;51.238;9.562;2024-02-28T01:03:29;11.90;;;5.40;;
3415;SDS011;1721;51.238;9.562;2024-02-28T01:05:54;17.07;;;5.37;;
3415;SDS011;1721;51.238;9.562;2024-02-28T01:08:20;10.70;;;4.23;;
3415;SDS011;1721;51.238;9.562;2024-02-28T01:10:47;16.17;;;5.93;;
3415;SDS011;1721;51.238;9.562;2024-02-28T01:13:12;11.43;;;5.15;;
3415;SDS011;1721;51.238;9.562;2024-02-28T01:15:41;12.83;;;4.10;;
3415;SDS011;1721;51.238;9.562;2024-02-28T01:18:07;6.55;;;3.65;;
3415;SDS011;1721;51.238;9.562;2024-02-28T01:20:32;20.13;;;6.03;;
3415;SDS011;1721;51.238;9.562;2024-02-28T01:22:58;15.33;;;5.90;;
3415;SDS011;1721;51.238;9.562;2024-02-28T01:25:23;14.70;;;6.07;;
3415;SDS011;1721;51.238;9.562;2024-02-28T01:27:49;12.70;;;6.63;;
3415;SDS011;1721;51.238;9.562;2024-02-28T01:30:16;14.10;;;5.00;;
3415;SDS011;1721;51.238;9.562;2024-02-28T01:32:41;7.93;;;3.78;;
3415;SDS011;1721;51.238;9.562;2024-02-28T01:35:08;12.03;;;5.80;;
3415;SDS011;1721;51.238;9.562;2024-02-28T01:37:34;13.93;;;5.75;;
3415;SDS011;1721;51.238;9.562;2024-02-28T01:39:59;12.77;;;5.97;;
3415;SDS011;1721;51.238;9.562;2024-02-28T01:42:25;22.10;;;5.30;;
3415;SDS011;1721;51.238;9.562;2024-02-28T01:44:52;7.33;;;3.87;;
3415;SDS011;1721;51.238;9.562;2024-02-28T01:47:17;9.13;;;4.30;;
3415;SDS011;1721;51.238;9.562;2024-02-28T01:49:43;14.80;;;5.80;;
3415;SDS011;1721;51.238;9.562;2024-02-28T01:52:12;19.25;;;4.30;;
3415;SDS011;1721;51.238;9.562;2024-02-28T01:54:38;11.23;;;5.32;;
3415;SDS011;1721;51.238;9.562;2024-02-28T01:57:05;12.60;;;4.85;;
3415;SDS011;1721;51.238;9.562;2024-02-28T01:59:31;14.57;;;4.68;;
3415;SDS011;1721;51.238;9.562;2024-02-28T02:01:58;11.98;;;4.95;;
3415;SDS011;1721;51.238;9.562;2024-02-28T02:04:23;17.03;;;4.83;;
3415;SDS011;1721;51.238;9.562;2024-02-28T02:06:49;21.07;;;5.30;;
3415;SDS011;1721;51.238;9.562;2024-02-28T02:09:17;10.98;;;5.32;;
3415;SDS011;1721;51.238;9.562;2024-02-28T02:11:43;14.33;;;4.87;;
3415;SDS011;1721;51.238;9.562;2024-02-28T02:14:09;14.90;;;5.67;;
3415;SDS011;1721;51.238;9.562;2024-02-28T02:16:35;23.00;;;7.85;;
3415;SDS011;1721;51.238;9.562;2024-02-28T02:19:00;11.93;;;5.13;;
3415;SDS011;1721;51.238;9.562;2024-02-28T02:21:34;20.27;;;5.90;;
3415;SDS011;1721;51.238;9.562;2024-02-28T02:24:04;17.90;;;6.90;;
3415;SDS011;1721;51.238;9.562;2024-02-28T02:26:30;23.08;;;7.65;;
3415;SDS011;1721;51.238;9.562;2024-02-28T02:28:56;16.10;;;6.70;;
3415;SDS011;1721;51.238;9.562;2024-02-28T02:31:22;15.43;;;5.83;;
3415;SDS011;1721;51.238;9.562;2024-02-28T02:33:47;14.20;;;5.00;;
3415;SDS011;1721;51.238;9.562;2024-02-28T02:36:14;21.83;;;6.40;;
3415;SDS011;1721;51.238;9.562;2024-02-28T02:38:39;15.50;;;5.22;;
3415;SDS011;1721;51.238;9.562;2024-02-28T02:41:05;15.97;;;6.07;;
3415;SDS011;1721;51.238;9.562;2024-02-28T02:43:32;22.33;;;6.80;;
3415;SDS011;1721;51.238;9.562;2024-02-28T02:45:57;19.92;;;6.15;;
3415;SDS011;1721;51.238;9.562;2024-02-28T02:48:23;28.70;;;7.97;;
3415;SDS011;1721;51.238;9.562;2024-02-28T02:50:48;22.70;;;7.40;;
3415;SDS011;1721;51.238;9.562;2024-02-28T02:53:14;23.30;;;7.40;;
3415;SDS011;1721;51.238;9.562;2024-02-28T02:55:39;21.63;;;8.13;;
3415;SDS011;1721;51.238;9.562;2024-02-28T02:58:05;18.07;;;7.27;;
3415;SDS011;1721;51.238;9.562;2024-02-28T03:00:30;19.97;;;7.77;;
3415;SDS011;1721;51.238;9.562;2024-02-28T03:02:56;24.93;;;7.27;;
3415;SDS011;1721;51.238;9.562;2024-02-28T03:05:21;42.23;;;8.70;;
3415;SDS011;1721;51.238;9.562;2024-02-28T03:07:47;12.47;;;5.60;;
3415;SDS011;1721;51.238;9.562;2024-02-28T03:10:12;18.10;;;7.20;;
3415;SDS011;1721;51.238;9.562;2024-02-28T03:12:38;13.37;;;6.07;;
3415;SDS011;1721;51.238;9.562;2024-02-28T03:15:04;20.70;;;7.77;;
3415;SDS011;1721;51.238;9.562;2024-02-28T03:17:30;15.20;;;6.35;;
3415;SDS011;1721;51.238;9.562;2024-02-28T03:19:56;25.07;;;6.93;;
3415;SDS011;1721;51.238;9.562;2024-02-28T03:22:21;13.57;;;5.47;;
3415;SDS011;1721;51.238;9.562;2024-02-28T03:24:47;21.40;;;6.47;;
3415;SDS011;1721;51.238;9.562;2024-02-28T03:27:13;41.72;;;6.10;;
3415;SDS011;1721;51.238;9.562;2024-02-28T03:29:39;15.37;;;5.73;;
3415;SDS011;1721;51.238;9.562;2024-02-28T03:32:04;23.93;;;6.73;;
3415;SDS011;1721;51.238;9.562;2024-02-28T03:34:30;13.93;;;5.20;;
3415;SDS011;1721;51.238;9.562;2024-02-28T03:36:56;12.27;;;5.23;;
3415;SDS011;1721;51.238;9.562;2024-02-28T03:39:21;18.50;;;5.93;;
3415;SDS011;1721;51.238;9.562;2024-02-28T03:41:47;17.73;;;5.43;;
3415;SDS011;1721;51.238;9.562;2024-02-28T03:44:12;33.87;;;5.07;;
3415;SDS011;1721;51.238;9.562;2024-02-28T03:46:38;21.27;;;6.17;;
3415;SDS011;1721;51.238;9.562;2024-02-28T03:49:03;13.37;;;4.90;;
3415;SDS011;1721;51.238;9.562;2024-02-28T03:51:30;29.33;;;6.17;;
3415;SDS011;1721;51.238;9.562;2024-02-28T03:53:56;19.38;;;5.65;;
3415;SDS011;1721;51.238;9.562;2024-02-28T03:56:25;19.87;;;6.40;;
3415;SDS011;1721;51.238;9.562;2024-02-28T03:58:51;16.95;;;4.88;;
3415;SDS011;1721;51.238;9.562;2024-02-28T04:01:17;13.40;;;4.93;;
3415;SDS011;1721;51.238;9.562;2024-02-28T04:03:42;17.60;;;5.73;;
3415;SDS011;1721;51.238;9.562;2024-02-28T04:06:08;14.37;;;4.80;;
3415;SDS011;1721;51.238;9.562;2024-02-28T04:08:34;17.43;;;6.07;;
3415;SDS011;1721;51.238;9.562;2024-02-28T04:10:59;11.10;;;4.80;;
3415;SDS011;1721;51.238;9.562;2024-02-28T04:13:25;18.47;;;3.60;;
3415;SDS011;1721;51.238;9.562;2024-02-28T04:15:51;16.33;;;6.03;;
3415;SDS011;1721;51.238;9.562;2024-02-28T04:18:16;17.87;;;6.33;;
3415;SDS011;1721;51.238;9.562;2024-02-28T04:20:42;14.27;;;5.43;;
3415;SDS011;1721;51.238;9.562;2024-02-28T04:23:08;13.83;;;5.53;;
3415;SDS011;1721;51.238;9.562;2024-02-28T04:25:33;13.83;;;5.53;;
3415;SDS011;1721;51.238;9.562;2024-02-28T04:28:02;18.67;;;7.25;;
3415;SDS011;1721;51.238;9.562;2024-02-28T04:30:29;22.48;;;5.90;;
3415;SDS011;1721;51.238;9.562;2024-02-28T04:32:54;16.52;;;6.78;;
3415;SDS011;1721;51.238;9.562;2024-02-28T04:35:20;16.03;;;5.70;;
3415;SDS011;1721;51.238;9.562;2024-02-28T04:37:46;23.33;;;6.30;;
3415;SDS011;1721;51.238;9.562;2024-02-28T04:40:11;13.37;;;4.07;;
3415;SDS011;1721;51.238;9.562;2024-02-28T04:42:37;10.27;;;4.55;;
3415;SDS011;1721;51.238;9.562;2024-02-28T04:45:04;15.30;;;5.60;;
3415;SDS011;1721;51.238;9.562;2024-02-28T04:47:30;11.73;;;4.10;;
3415;SDS011;1721;51.238;9.562;2024-02-28T04:49:55;12.13;;;4.03;;
3415;SDS011;1721;51.238;9.562;2024-02-28T04:52:23;9.30;;;4.90;;
3415;SDS011;1721;51.238;9.562;2024-02-28T04:54:49;13.13;;;4.57;;
3415;SDS011;1721;51.238;9.562;2024-02-28T04:57:15;10.43;;;4.37;;
3415;SDS011;1721;51.238;9.562;2024-02-28T04:59:41;10.77;;;3.73;;
3415;SDS011;1721;51.238;9.562;2024-02-28T05:02:08;9.93;;;4.25;;
3415;SDS011;1721;51.238;9.562;2024-02-28T05:04:34;12.67;;;4.50;;
3415;SDS011;1721;51.238;9.562;2024-02-28T05:06:59;13.37;;;5.23;;
3415;SDS011;1721;51.238;9.562;2024-02-28T05:09:25;13.97;;;4.83;;
3415;SDS011;1721;51.238;9.562;2024-02-28T05:11:51;10.73;;;4.67;;
3415;SDS011;1721;51.238;9.562;2024-02-28T05:14:16;7.27;;;3.60;;
3415;SDS011;1721;51.238;9.562;2024-02-28T05:16:42;10.63;;;3.50;;
3415;SDS011;1721;51.238;9.562;2024-02-28T05:19:08;11.07;;;4.60;;
3415;SDS011;1721;51.238;9.562;2024-02-28T05:21:40;13.05;;;5.25;;
3415;SDS011;1721;51.238;9.562;2024-02-28T05:24:07;9.88;;;4.38;;
3415;SDS011;1721;51.238;9.562;2024-02-28T05:26:34;11.35;;;3.55;;
3415;SDS011;1721;51.238;9.562;2024-02-28T05:29:02;23.13;;;5.75;;
3415;SDS011;1721;51.238;9.562;2024-02-28T05:31:29;10.82;;;5.32;;
3415;SDS011;1721;51.238;9.562;2024-02-28T05:33:57;13.07;;;4.90;;
3415;SDS011;1721;51.238;9.562;2024-02-28T05:36:23;14.18;;;5.38;;
3415;SDS011;1721;51.238;9.562;2024-02-28T05:38:50;13.73;;;4.40;;
3415;SDS011;1721;51.238;9.562;2024-02-28T05:41:16;13.55;;;4.38;;
3415;SDS011;1721;51.238;9.562;2024-02-28T05:43:46;8.57;;;3.55;;
3415;SDS011;1721;51.238;9.562;2024-02-28T05:46:13;17.10;;;5.15;;
3415;SDS011;1721;51.238;9.562;2024-02-28T05:48:42;11.38;;;5.40;;
3415;SDS011;1721;51.238;9.562;2024-02-28T05:51:08;33.90;;;5.25;;
3415;SDS011;1721;51.238;9.562;2024-02-28T05:53:34;8.30;;;3.47;;
3415;SDS011;1721;51.238;9.562;2024-02-28T05:56:01;11.38;;;5.00;;
3415;SDS011;1721;51.238;9.562;2024-02-28T05:58:27;9.80;;;3.90;;
3415;SDS011;1721;51.238;9.562;2024-02-28T06:00:53;11.53;;;4.70;;
3415;SDS011;1721;51.238;9.562;2024-02-28T06:03:19;7.50;;;4.00;;
3415;SDS011;1721;51.238;9.562;2024-02-28T06:05:44;8.30;;;4.03;;
3415;SDS011;1721;51.238;9.562;2024-02-28T06:08:10;12.80;;;4.30;;
3415;SDS011;1721;51.238;9.562;2024-02-28T06:10:36;14.70;;;4.90;;
3415;SDS011;1721;51.238;9.562;2024-02-28T06:13:02;17.10;;;4.60;;
3415;SDS011;1721;51.238;9.562;2024-02-28T06:15:28;14.68;;;5.40;;
3415;SDS011;1721;51.238;9.562;2024-02-28T06:17:56;7.87;;;2.70;;
3415;SDS011;1721;51.238;9.562;2024-02-28T06:20:23;8.90;;;4.00;;
3415;SDS011;1721;51.238;9.562;2024-02-28T06:22:50;8.27;;;2.97;;
3415;SDS011;1721;51.238;9.562;2024-02-28T06:25:16;6.10;;;2.63;;
3415;SDS011;1721;51.238;9.562;2024-02-28T06:27:48;9.88;;;3.70;;
3415;SDS011;1721;51.238;9.562;2024-02-28T06:30:14;10.70;;;3.42;;
3415;SDS011;1721;51.238;9.562;2024-02-28T06:32:41;8.88;;;4.38;;
3415;SDS011;1721;51.238;9.562;2024-02-28T06:35:07;11.40;;;4.10;;
3415;SDS011;1721;51.238;9.562;2024-02-28T06:37:34;11.82;;;3.40;;
3415;SDS011;1721;51.238;9.562;2024-02-28T06:40:00;11.23;;;4.83;;
3415;SDS011;1721;51.238;9.562;2024-02-28T06:42:27;10.60;;;3.85;;
3415;SDS011;1721;51.238;9.562;2024-02-28T06:44:52;12.90;;;3.75;;
3415;SDS011;1721;51.238;9.562;2024-02-28T06:47:18;14.97;;;4.40;;
3415;SDS011;1721;51.238;9.562;2024-02-28T06:49:45;12.43;;;3.60;;
3415;SDS011;1721;51.238;9.562;2024-02-28T06:52:11;8.35;;;3.65;;
3415;SDS011;1721;51.238;9.562;2024-02-28T06:54:37;14.15;;;6.07;;
3415;SDS011;1721;51.238;9.562;2024-02-28T06:57:02;16.30;;;4.90;;
3415;SDS011;1721;51.238;9.562;2024-02-28T06:59:28;11.77;;;4.20;;
3415;SDS011;1721;51.238;9.562;2024-02-28T07:01:54;10.30;;;4.20;;
3415;SDS011;1721;51.238;9.562;2024-02-28T07:04:19;11.37;;;5.50;;
3415;SDS011;1721;51.238;9.562;2024-02-28T07:06:45;10.90;;;4.73;;
3415;SDS011;1721;51.238;9.562;2024-02-28T07:09:11;20.07;;;5.73;;
3415;SDS011;1721;51.238;9.562;2024-02-28T07:11:37;16.90;;;5.20;;
3415;SDS011;1721;51.238;9.562;2024-02-28T07:14:05;26.67;;;4.55;;
3415;SDS011;1721;51.238;9.562;2024-02-28T07:16:30;18.58;;;7.18;;
3415;SDS011;1721;51.238;9.562;2024-02-28T07:18:59;19.95;;;6.00;;
3415;SDS011;1721;51.238;9.562;2024-02-28T07:21:25;12.88;;;4.65;;
3415;SDS011;1721;51.238;9.562;2024-02-28T07:23:51;18.70;;;4.07;;
3415;SDS011;1721;51.238;9.562;2024-02-28T07:26:16;9.47;;;3.73;;
3415;SDS011;1721;51.238;9.562;2024-02-28T07:28:42;12.77;;;3.13;;
3415;SDS011;1721;51.238;9.562;2024-02-28T07:31:15;9.02;;;4.50;;
3415;SDS011;1721;51.238;9.562;2024-02-28T07:33:41;7.28;;;3.03;;
3415;SDS011;1721;51.238;9.562;2024-02-28T07:36:07;18.73;;;4.37;;
3415;SDS011;1721;51.238;9.562;2024-02-28T07:38:32;18.97;;;4.77;;
3415;SDS011;1721;51.238;9.562;2024-02-28T07:40:58;16.00;;;5.30;;
3415;SDS011;1721;51.238;9.562;2024-02-28T07:43:24;66.23;;;4.17;;
3415;SDS011;1721;51.238;9.562;2024-02-28T07:45:49;17.23;;;5.70;;
3415;SDS011;1721;51.238;9.562;2024-02-28T07:48:15;17.40;;;5.20;;
3415;SDS011;1721;51.238;9.562;2024-02-28T07:50:43;18.58;;;6.60;;
3415;SDS011;1721;51.238;9.562;2024-02-28T07:53:15;9.63;;;4.28;;
3415;SDS011;1721;51.238;9.562;2024-02-28T07:55:41;12.48;;;4.85;;
3415;SDS011;1721;51.238;9.562;2024-02-28T07:58:07;16.30;;;5.47;;
3415;SDS011;1721;51.238;9.562;2024-02-28T08:00:34;16.15;;;4.80;;
3415;SDS011;1721;51.238;9.562;2024-02-28T08:02:59;11.87;;;4.67;;
3415;SDS011;1721;51.238;9.562;2024-02-28T08:05:25;16.73;;;5.30;;
3415;SDS011;1721;51.238;9.562;2024-02-28T08:07:52;14.63;;;6.23;;
3415;SDS011;1721;51.238;9.562;2024-02-28T08:10:17;13.95;;;6.22;;
3415;SDS011;1721;51.238;9.562;2024-02-28T08:12:43;16.00;;;5.37;;
3415;SDS011;1721;51.238;9.562;2024-02-28T08:15:09;25.30;;;5.17;;
3415;SDS011;1721;51.238;9.562;2024-02-28T08:17:35;12.93;;;4.95;;
3415;SDS011;1721;51.238;9.562;2024-02-28T08:20:01;21.88;;;6.13;;
3415;SDS011;1721;51.238;9.562;2024-02-28T08:22:29;18.88;;;5.70;;
3415;SDS011;1721;51.238;9.562;2024-02-28T08:24:55;21.10;;;6.10;;
3415;SDS011;1721;51.238;9.562;2024-02-28T08:27:21;23.20;;;6.13;;
3415;SDS011;1721;51.238;9.562;2024-02-28T08:29:48;23.75;;;6.80;;
3415;SDS011;1721;51.238;9.562;2024-02-28T08:32:17;20.70;;;7.20;;
3415;SDS011;1721;51.238;9.562;2024-02-28T08:34:43;12.45;;;5.32;;
3415;SDS011;1721;51.238;9.562;2024-02-28T08:37:12;21.17;;;5.93;;
3415;SDS011;1721;51.238;9.562;2024-02-28T08:39:38;27.50;;;7.63;;
3415;SDS011;1721;51.238;9.562;2024-02-28T08:42:04;28.83;;;8.60;;
3415;SDS011;1721;51.238;9.562;2024-02-28T08:44:30;27.23;;;8.07;;
3415;SDS011;1721;51.238;9.562;2024-02-28T08:46:55;31.63;;;7.93;;
3415;SDS011;1721;51.238;9.562;2024-02-28T08:49:21;18.23;;;6.40;;
3415;SDS011;1721;51.238;9.562;2024-02-28T08:51:46;22.03;;;7.80;;
3415;SDS011;1721;51.238;9.562;2024-02-28T08:54:13;29.00;;;8.63;;
3415;SDS011;1721;51.238;9.562;2024-02-28T08:56:39;23.42;;;8.18;;
3415;SDS011;1721;51.238;9.562;2024-02-28T08:59:05;22.63;;;7.47;;
3415;SDS011;1721;51.238;9.562;2024-02-28T09:01:30;22.13;;;7.60;;
3415;SDS011;1721;51.238;9.562;2024-02-28T09:03:56;25.07;;;10.23;;
3415;SDS011;1721;51.238;9.562;2024-02-28T09:06:21;25.57;;;8.60;;
3415;SDS011;1721;51.238;9.562;2024-02-28T09:08:47;28.60;;;7.87;;
3415;SDS011;1721;51.238;9.562;2024-02-28T09:11:13;21.23;;;8.17;;
3415;SDS011;1721;51.238;9.562;2024-02-28T09:13:38;19.93;;;8.53;;
3415;SDS011;1721;51.238;9.562;2024-02-28T09:16:04;26.90;;;8.33;;
3415;SDS011;1721;51.238;9.562;2024-02-28T09:18:30;23.97;;;7.67;;
3415;SDS011;1721;51.238;9.562;2024-02-28T09:20:55;20.67;;;8.60;;
3415;SDS011;1721;51.238;9.562;2024-02-28T09:23:21;19.77;;;7.93;;
3415;SDS011;1721;51.238;9.562;2024-02-28T09:25:46;29.63;;;9.03;;
3415;SDS011;1721;51.238;9.562;2024-02-28T09:28:12;24.37;;;9.47;;
3415;SDS011;1721;51.238;9.562;2024-02-28T09:30:40;30.42;;;11.32;;
3415;SDS011;1721;51.238;9.562;2024-02-28T09:33:05;24.23;;;9.00;;
3415;SDS011;1721;51.238;9.562;2024-02-28T09:35:31;36.87;;;9.80;;
3415;SDS011;1721;51.238;9.562;2024-02-28T09:37:57;26.70;;;9.10;;
3415;SDS011;1721;51.238;9.562;2024-02-28T09:40:22;29.77;;;10.17;;
3415;SDS011;1721;51.238;9.562;2024-02-28T09:42:57;25.70;;;8.77;;
3415;SDS011;1721;51.238;9.562;2024-02-28T09:45:27;27.45;;;8.70;;
3415;SDS011;1721;51.238;9.562;2024-02-28T09:47:55;25.08;;;8.25;;
3415;SDS011;1721;51.238;9.562;2024-02-28T09:50:25;25.23;;;7.32;;
3415;SDS011;1721;51.238;9.562;2024-02-28T09:52:52;28.08;;;9.13;;
3415;SDS011;1721;51.238;9.562;2024-02-28T09:55:18;28.98;;;9.77;;
3415;SDS011;1721;51.238;9.562;2024-02-28T09:57:45;25.50;;;8.70;;
3415;SDS011;1721;51.238;9.562;2024-02-28T10:00:13;38.80;;;9.75;;
3415;SDS011;1721;51.238;9.562;2024-02-28T10:02:41;21.83;;;8.30;;
3415;SDS011;1721;51.238;9.562;2024-02-28T10:05:09;28.98;;;8.65;;
3415;SDS011;1721;51.238;9.562;2024-02-28T10:07:35;26.13;;;7.13;;
3415;SDS011;1721;51.238;9.562;2024-02-28T10:10:02;23.93;;;8.40;;
3415;SDS011;1721;51.238;9.562;2024-02-28T10:12:29;28.23;;;9.10;;
3415;SDS011;1721;51.238;9.562;2024-02-28T10:14:54;24.27;;;8.43;;
3415;SDS011;1721;51.238;9.562;2024-02-28T10:17:21;28.00;;;8.40;;
3415;SDS011;1721;51.238;9.562;2024-02-28T10:19:46;21.08;;;7.70;;
3415;SDS011;1721;51.238;9.562;2024-02-28T10:22:12;28.23;;;8.80;;
3415;SDS011;1721;51.238;9.562;2024-02-28T10:24:38;26.80;;;8.40;;
3415;SDS011;1721;51.238;9.562;2024-02-28T10:27:03;21.67;;;8.70;;
3415;SDS011;1721;51.238;9.562;2024-02-28T10:29:29;26.73;;;8.93;;
3415;SDS011;1721;51.238;9.562;2024-02-28T10:31:58;18.48;;;6.38;;
3415;SDS011;1721;51.238;9.562;2024-02-28T10:34:24;17.25;;;7.18;;
3415;SDS011;1721;51.238;9.562;2024-02-28T10:36:50;32.10;;;8.77;;
3415;SDS011;1721;51.238;9.562;2024-02-28T10:39:16;23.40;;;8.48;;
3415;SDS011;1721;51.238;9.562;2024-02-28T10:41:42;27.37;;;10.00;;
3415;SDS011;1721;51.238;9.562;2024-02-28T10:44:09;36.63;;;11.18;;
3415;SDS011;1721;51.238;9.562;2024-02-28T10:46:38;35.08;;;10.63;;
3415;SDS011;1721;51.238;9.562;2024-02-28T10:49:04;30.27;;;9.38;;
3415;SDS011;1721;51.238;9.562;2024-02-28T10:51:30;25.67;;;8.25;;
3415;SDS011;1721;51.238;9.562;2024-02-28T10:54:08;36.88;;;12.60;;
3415;SDS011;1721;51.238;9.562;2024-02-28T10:56:36;35.78;;;10.70;;
3415;SDS011;1721;51.238;9.562;2024-02-28T10:59:06;30.77;;;9.73;;
3415;SDS011;1721;51.238;9.562;2024-02-28T11:01:34;36.65;;;11.15;;
3415;SDS011;1721;51.238;9.562;2024-02-28T11:04:06;30.33;;;9.82;;
3415;SDS011;1721;51.238;9.562;2024-02-28T11:06:32;30.37;;;10.17;;
3415;SDS011;1721;51.238;9.562;2024-02-28T11:09:01;27.00;;;10.57;;
3415;SDS011;1721;51.238;9.562;2024-02-28T11:11:31;34.20;;;10.07;;
3415;SDS011;1721;51.238;9.562;2024-02-28T11:13:58;31.58;;;9.50;;
3415;SDS011;1721;51.238;9.562;2024-02-28T11:16:30;24.48;;;9.40;;
3415;SDS011;1721;51.238;9.562;2024-02-28T11:19:01;26.80;;;8.60;;
3415;SDS011;1721;51.238;9.562;2024-02-28T11:21:29;37.78;;;9.75;;
3415;SDS011;1721;51.238;9.562;2024-02-28T11:23:57;29.90;;;9.10;;
3415;SDS011;1721;51.238;9.562;2024-02-28T11:26:24;23.38;;;8.68;;
3415;SDS011;1721;51.238;9.562;2024-02-28T11:28:50;31.35;;;10.10;;
3415;SDS011;1721;51.238;9.562;2024-02-28T11:31:16;26.87;;;9.20;;
3415;SDS011;1721;51.238;9.562;2024-02-28T11:33:43;20.00;;;7.93;;
3415;SDS011;1721;51.238;9.562;2024-02-28T11:36:11;30.87;;;11.37;;
3415;SDS011;1721;51.238;9.562;2024-02-28T11:38:38;29.63;;;11.25;;
3415;SDS011;1721;51.238;9.562;2024-02-28T11:41:04;34.20;;;10.32;;
3415;SDS011;1721;51.238;9.562;2024-02-28T11:43:33;31.30;;;11.10;;
3415;SDS011;1721;51.238;9.562;2024-02-28T11:46:07;23.25;;;9.43;;
3415;SDS011;1721;51.238;9.562;2024-02-28T11:48:34;29.20;;;10.10;;
3415;SDS011;1721;51.238;9.562;2024-02-28T11:51:00;33.10;;;11.53;;
3415;SDS011;1721;51.238;9.562;2024-02-28T11:53:27;29.90;;;11.67;;
3415;SDS011;1721;51.238;9.562;2024-02-28T11:55:53;23.65;;;10.38;;
3415;SDS011;1721;51.238;9.562;2024-02-28T11:58:21;38.00;;;11.25;;
3415;SDS011;1721;51.238;9.562;2024-02-28T12:00:50;31.20;;;11.05;;
3415;SDS011;1721;51.238;9.562;2024-02-28T12:03:25;24.10;;;9.90;;
3415;SDS011;1721;51.238;9.562;2024-02-28T12:05:52;33.22;;;11.35;;
3415;SDS011;1721;51.238;9.562;2024-02-28T12:08:18;31.77;;;11.00;;
3415;SDS011;1721;51.238;9.562;2024-02-28T12:10:45;33.50;;;10.77;;
3415;SDS011;1721;51.238;9.562;2024-02-28T12:13:11;36.90;;;13.32;;
3415;SDS011;1721;51.238;9.562;2024-02-28T12:15:40;33.47;;;12.25;;
3415;SDS011;1721;51.238;9.562;2024-02-28T12:18:09;28.50;;;10.80;;
3415;SDS011;1721;51.238;9.562;2024-02-28T12:20:36;29.20;;;9.68;;
3415;SDS011;1721;51.238;9.562;2024-02-28T12:23:05;25.25;;;9.73;;
3415;SDS011;1721;51.238;9.562;2024-02-28T12:25:30;35.50;;;12.13;;
3415;SDS011;1721;51.238;9.562;2024-02-28T12:27:56;29.90;;;11.60;;
3415;SDS011;1721;51.238;9.562;2024-02-28T12:30:23;31.57;;;11.30;;
3415;SDS011;1721;51.238;9.562;2024-02-28T12:32:48;30.85;;;10.60;;
3415;SDS011;1721;51.238;9.562;2024-02-28T12:35:14;32.10;;;10.90;;
3415;SDS011;1721;51.238;9.562;2024-02-28T12:37:40;25.37;;;11.50;;
3415;SDS011;1721;51.238;9.562;2024-02-28T12:40:06;23.05;;;11.38;;
3415;SDS011;1721;51.238;9.562;2024-02-28T12:42:33;27.27;;;8.43;;
3415;SDS011;1721;51.238;9.562;2024-02-28T12:44:59;23.70;;;9.07;;
3415;SDS011;1721;51.238;9.562;2024-02-28T12:47:25;25.92;;;10.00;;
3415;SDS011;1721;51.238;9.562;2024-02-28T12:49:51;32.13;;;10.60;;
3415;SDS011;1721;51.238;9.562;2024-02-28T12:52:17;29.53;;;11.33;;
3415;SDS011;1721;51.238;9.562;2024-02-28T12:54:43;30.42;;;10.60;;
3415;SDS011;1721;51.238;9.562;2024-02-28T12:57:09;22.67;;;8.70;;
3415;SDS011;1721;51.238;9.562;2024-02-28T12:59:37;26.55;;;9.32;;
3415;SDS011;1721;51.238;9.562;2024-02-28T13:02:04;26.95;;;10.25;;
3415;SDS011;1721;51.238;9.562;2024-02-28T13:04:30;31.00;;;10.50;;
3415;SDS011;1721;51.238;9.562;2024-02-28T13:06:55;27.93;;;10.37;;
3415;SDS011;1721;51.238;9.562;2024-02-28T13:09:21;28.83;;;10.90;;
3415;SDS011;1721;51.238;9.562;2024-02-28T13:11:47;27.77;;;10.07;;
3415;SDS011;1721;51.238;9.562;2024-02-28T13:14:13;30.07;;;10.10;;
3415;SDS011;1721;51.238;9.562;2024-02-28T13:16:38;34.50;;;11.77;;
3415;SDS011;1721;51.238;9.562;2024-02-28T13:19:04;28.83;;;9.47;;
3415;SDS011;1721;51.238;9.562;2024-02-28T13:21:30;24.00;;;9.73;;
3415;SDS011;1721;51.238;9.562;2024-02-28T13:23:57;31.15;;;9.55;;
3415;SDS011;1721;51.238;9.562;2024-02-28T13:26:23;38.88;;;10.13;;
3415;SDS011;1721;51.238;9.562;2024-02-28T13:28:49;26.73;;;9.60;;
3415;SDS011;1721;51.238;9.562;2024-02-28T13:31:14;21.90;;;8.30;;
3415;SDS011;1721;51.238;9.562;2024-02-28T13:33:41;24.02;;;8.90;;
3415;SDS011;1721;51.238;9.562;2024-02-28T13:36:07;28.40;;;8.70;;
3415;SDS011;1721;51.238;9.562;2024-02-28T13:38:32;28.45;;;8.70;;
3415;SDS011;1721;51.238;9.562;2024-02-28T13:40:58;25.13;;;9.53;;
3415;SDS011;1721;51.238;9.562;2024-02-28T13:43:24;17.13;;;7.82;;
3415;SDS011;1721;51.238;9.562;2024-02-28T13:45:50;25.27;;;8.37;;
3415;SDS011;1721;51.238;9.562;2024-02-28T13:48:20;26.15;;;9.35;;
3415;SDS011;1721;51.238;9.562;2024-02-28T13:50:49;28.42;;;9.63;;
3415;SDS011;1721;51.238;9.562;2024-02-28T13:53:15;20.23;;;8.60;;
3415;SDS011;1721;51.238;9.562;2024-02-28T13:55:44;23.17;;;8.30;;
3415;SDS011;1721;51.238;9.562;2024-02-28T13:58:13;28.92;;;11.15;;
3415;SDS011;1721;51.238;9.562;2024-02-28T14:00:43;26.85;;;10.05;;
3415;SDS011;1721;51.238;9.562;2024-02-28T14:03:10;31.48;;;10.95;;
3415;SDS011;1721;51.238;9.562;2024-02-28T14:05:36;25.90;;;9.40;;
3415;SDS011;1721;51.238;9.562;2024-02-28T14:08:02;26.50;;;10.57;;
3415;SDS011;1721;51.238;9.562;2024-02-28T14:10:33;28.10;;;10.77;;
3415;SDS011;1721;51.238;9.562;2024-02-28T14:12:59;25.10;;;10.40;;
3415;SDS011;1721;51.238;9.562;2024-02-28T14:15:24;36.73;;;11.23;;
3415;SDS011;1721;51.238;9.562;2024-02-28T14:17:50;20.73;;;8.40;;
3415;SDS011;1721;51.238;9.562;2024-02-28T14:20:16;31.80;;;9.97;;
3415;SDS011;1721;51.238;9.562;2024-02-28T14:22:42;22.13;;;9.10;;
3415;SDS011;1721;51.238;9.562;2024-02-28T14:27:38;26.80;;;8.27;;
3415;SDS011;1721;51.238;9.562;2024-02-28T14:30:04;20.20;;;8.70;;
3415;SDS011;1721;51.238;9.562;2024-02-28T14:32:33;26.35;;;9.35;;
3415;SDS011;1721;51.238;9.562;2024-02-28T14:34:58;18.20;;;7.87;;
3415;SDS011;1721;51.238;9.562;2024-02-28T14:37:24;17.97;;;8.23;;
3415;SDS011;1721;51.238;9.562;2024-02-28T14:39:49;22.63;;;7.87;;
3415;SDS011;1721;51.238;9.562;2024-02-28T14:42:15;19.17;;;7.67;;
3415;SDS011;1721;51.238;9.562;2024-02-28T14:44:41;18.43;;;7.33;;
3415;SDS011;1721;51.238;9.562;2024-02-28T14:47:06;19.43;;;7.63;;
3415;SDS011;1721;51.238;9.562;2024-02-28T14:49:32;20.47;;;8.07;;
3415;SDS011;1721;51.238;9.562;2024-02-28T14:51:57;15.97;;;7.33;;
3415;SDS011;1721;51.238;9.562;2024-02-28T14:54:24;24.33;;;8.88;;
3415;SDS011;1721;51.238;9.562;2024-02-28T14:56:52;18.95;;;8.65;;